Pittsburgh, Pennsylvania
Traffic Map
Current Weather Conditions
Pittsburgh, Pennsylvania
Overcast Light Rain
Overcast

Feels Like: 5°
Wind Chill: Ceiling: 800
Heat Index: Visibility: 2mi
Dew Point: Wind: 3mph
Humidity: 86% Direction: ° ()
Pressure: 29.87in Gusts: 0mph
Raw Report DataKAGC 010707Z VRB03KT 2SM -RA BR BKN008 OVC023 05/03 A2987 RMK AO2 VIS 1 3/4V3 CIG 005V012 P0001 T00500028
Traffic Incident Summary
Active as of:
Severity:
Category:
InformationThere was an issue retrieving the traffic information for this location. Please try a different location or try again shortly.
Advertisements
Track Severe Weather on mobile